| time (UTC) | temp C | wind direction | speed KPH | gust KPH | rain 1hr cm | rain 24hr cm | rain mn cm | humidity % | barometer mb |
| 20260506115028 | 9 | 318 | 0.0 | 1.6 | 0.00 | 0.00 | 0.00 | 64 | 1015.7 |
| 20260506114529 | 9 | 318 | 0.0 | 1.6 | 0.00 | 0.00 | 0.00 | 64 | 1015.6 |
| 20260506114127 | 10 | 318 | 0.0 | 1.6 | 0.00 | 0.00 | 0.00 | 63 | 1015.6 |
| 20260506113528 | 10 | 318 | 0.0 | 1.6 | 0.00 | 0.00 | 0.00 | 62 | 1015.6 |
| 20260506113025 | 10 | 318 | 0.0 | 1.6 | 0.00 | 0.00 | 0.00 | 60 | 1015.5 |
| 20260506112524 | 10 | 318 | 0.0 | 1.6 | 0.00 | 0.00 | 0.00 | 60 | 1015.5 |
| 20260506112023 | 10 | 318 | 0.0 | 1.6 | 0.00 | 0.00 | 0.00 | 62 | 1015.5 |
| 20260506111524 | 10 | 318 | 0.0 | 1.6 | 0.00 | 0.00 | 0.00 | 61 | 1015.4 |
| 20260506111024 | 10 | 318 | 0.0 | 1.6 | 0.00 | 0.00 | 0.00 | 61 | 1015.4 |
| 20260506110524 | 10 | 318 | 0.0 | 1.6 | 0.00 | 0.00 | 0.00 | 60 | 1015.4 |
| 20260506110023 | 10 | 318 | 0.0 | 1.6 | 0.00 | 0.00 | 0.00 | 59 | 1015.4 |
| 20260506105521 | 10 | 318 | 0.0 | 1.6 | 0.00 | 0.00 | 0.00 | 61 | 1015.4 |
| 20260506105020 | 10 | 318 | 0.0 | 0.0 | 0.00 | 0.00 | 0.00 | 59 | 1015.4 |
| 20260506104540 | 10 | 318 | 0.0 | 1.6 | 0.00 | 0.00 | 0.00 | 59 | 1015.4 |
| 20260506104019 | 10 | 318 | 0.0 | 1.6 | 0.00 | 0.00 | 0.00 | 59 | 1015.4 |
| 20260506103519 | 10 | 318 | 0.0 | 1.6 | 0.00 | 0.00 | 0.00 | 58 | 1015.3 |
| 20260506103018 | 10 | 318 | 0.0 | 1.6 | 0.00 | 0.00 | 0.00 | 58 | 1015.3 |
| 20260506102519 | 10 | 318 | 0.0 | 1.6 | 0.00 | 0.00 | 0.00 | 59 | 1015.3 |
| 20260506102017 | 10 | 318 | 0.0 | 3.2 | 0.00 | 0.00 | 0.00 | 59 | 1015.2 |
| 20260506101517 | 10 | 318 | 0.0 | 3.2 | 0.00 | 0.00 | 0.00 | 59 | 1015.2 |
| 20260506101015 | 10 | 318 | 0.0 | 3.2 | 0.00 | 0.00 | 0.00 | 58 | 1015.2 |
| 20260506100517 | 10 | 318 | 0.0 | 3.2 | 0.00 | 0.00 | 0.00 | 58 | 1015.1 |
| 20260506100014 | 11 | 318 | 0.0 | 3.2 | 0.00 | 0.00 | 0.00 | 58 | 1015.0 |
| 20260506095512 | 11 | 297 | 0.0 | 1.6 | 0.00 | 0.00 | 0.00 | 58 | 1015.0 |
| 20260506095011 | 11 | 297 | 0.0 | 3.2 | 0.00 | 0.00 | 0.00 | 56 | 1015.0 |
| 20260506094510 | 11 | 297 | 0.0 | 3.2 | 0.00 | 0.00 | 0.00 | 55 | 1014.9 |
| 20260506094008 | 11 | 297 | 0.0 | 3.2 | 0.00 | 0.00 | 0.00 | 54 | 1014.9 |
| 20260506093510 | 11 | 297 | 0.0 | 3.2 | 0.00 | 0.00 | 0.00 | 54 | 1014.8 |
| 20260506093008 | 11 | 297 | 0.0 | 1.6 | 0.00 | 0.00 | 0.00 | 55 | 1014.8 |
| 20260506092508 | 11 | 297 | 0.0 | 0.0 | 0.00 | 0.00 | 0.00 | 56 | 1014.7 |
| 20260506092007 | 11 | 297 | 0.0 | 0.0 | 0.00 | 0.00 | 0.00 | 56 | 1014.7 |
| 20260506091506 | 11 | 297 | 0.0 | 0.0 | 0.00 | 0.00 | 0.00 | 55 | 1014.8 |
| 20260506091005 | 11 | 297 | 0.0 | 0.0 | 0.00 | 0.00 | 0.00 | 55 | 1014.7 |
| 20260506090509 | 12 | 297 | 0.0 | 1.6 | 0.00 | 0.00 | 0.00 | 53 | 1014.7 |
| 20260506090003 | 12 | 297 | 0.0 | 3.2 | 0.00 | 0.00 | 0.00 | 52 | 1014.7 |
| 20260506085503 | 12 | 297 | 0.0 | 3.2 | 0.00 | 0.00 | 0.00 | 51 | 1014.7 |
| 20260506085101 | 12 | 297 | 0.0 | 0.0 | 0.00 | 0.00 | 0.00 | 49 | 1014.7 |
| 20260506084559 | 13 | 297 | 0.0 | 1.6 | 0.00 | 0.00 | 0.00 | 48 | 1014.6 |
| 20260506084058 | 13 | 297 | 0.0 | 6.4 | 0.00 | 0.00 | 0.00 | 46 | 1014.6 |
| 20260506083558 | 13 | 297 | 0.0 | 3.2 | 0.00 | 0.00 | 0.00 | 46 | 1014.6 |
| 20260506083057 | 13 | 297 | 0.0 | 3.2 | 0.00 | 0.00 | 0.00 | 46 | 1014.7 |
| 20260506082556 | 13 | 297 | 0.0 | 6.4 | 0.00 | 0.00 | 0.00 | 45 | 1014.7 |
| 20260506082056 | 13 | 267 | 1.6 | 8.0 | 0.00 | 0.00 | 0.00 | 44 | 1014.7 |
| 20260506081600 | 14 | 263 | 1.6 | 9.7 | 0.00 | 0.00 | 0.00 | 44 | 1014.7 |
| 20260506081055 | 13 | 258 | 3.2 | 9.7 | 0.00 | 0.00 | 0.00 | 44 | 1014.7 |
| 20260506080556 | 14 | 254 | 3.2 | 9.7 | 0.00 | 0.00 | 0.00 | 43 | 1014.7 |
| 20260506080106 | 13 | 255 | 1.6 | 6.4 | 0.00 | 0.00 | 0.00 | 43 | 1014.7 |
| 20260506073051 | 15 | 240 | 4.8 | 9.7 | 0.00 | 0.00 | 0.00 | 40 | 1014.5 |
| 20260506072553 | 14 | 246 | 4.8 | 9.7 | 0.00 | 0.00 | 0.00 | 40 | 1014.4 |
| 20260506072051 | 14 | 251 | 4.8 | 9.7 | 0.00 | 0.00 | 0.00 | 41 | 1014.4 |
| 20260506071601 | 13 | 228 | 1.6 | 6.4 | 0.00 | 0.00 | 0.00 | 42 | 1014.4 |
| 20260506071050 | 13 | 228 | 1.6 | 6.4 | 0.00 | 0.00 | 0.00 | 43 | 1014.4 |
| 20260506070549 | 13 | 228 | 0.0 | 6.4 | 0.00 | 0.00 | 0.00 | 43 | 1014.4 |
| 20260506062040 | 15 | 218 | 0.0 | 3.2 | 0.00 | 0.00 | 0.00 | 37 | 1014.0 |
| 20260506061539 | 15 | 218 | 0.0 | 3.2 | 0.00 | 0.00 | 0.00 | 36 | 1013.9 |
| 20260506061039 | 15 | 218 | 0.0 | 8.0 | 0.00 | 0.00 | 0.00 | 34 | 1013.9 |
| 20260506060541 | 16 | 237 | 0.0 | 8.0 | 0.00 | 0.00 | 0.00 | 33 | 1013.9 |
| 20260506051034 | 17 | 209 | 3.2 | 12.9 | 0.00 | 0.00 | 0.00 | 29 | 1013.5 |
| 20260506050535 | 17 | 190 | 4.8 | 12.9 | 0.00 | 0.00 | 0.00 | 29 | 1013.4 |
| 20260506045032 | 17 | 194 | 1.6 | 4.8 | 0.00 | 0.00 | 0.00 | 28 | 1013.3 |
| 20260506044536 | 17 | 194 | 1.6 | 6.4 | 0.00 | 0.00 | 0.00 | 28 | 1013.4 |
| 20260506044032 | 17 | 194 | 1.6 | 8.0 | 0.00 | 0.00 | 0.00 | 28 | 1013.3 |
| 20260506043533 | 17 | 194 | 3.2 | 8.0 | 0.00 | 0.00 | 0.00 | 27 | 1013.2 |
| 20260506043036 | 18 | 205 | 1.6 | 8.0 | 0.00 | 0.00 | 0.00 | 27 | 1013.2 |
| 20260506042532 | 18 | 227 | 4.8 | 14.5 | 0.00 | 0.00 | 0.00 | 26 | 1013.2 |
| 20260506042033 | 18 | 214 | 6.4 | 14.5 | 0.00 | 0.00 | 0.00 | 26 | 1013.1 |
| 20260506041536 | 18 | 189 | 6.4 | 11.3 | 0.00 | 0.00 | 0.00 | 26 | 1013.1 |
| 20260506041033 | 18 | 198 | 3.2 | 9.7 | 0.00 | 0.00 | 0.00 | 27 | 1013.0 |
| 20260506040531 | 18 | 184 | 4.8 | 11.3 | 0.00 | 0.00 | 0.00 | 26 | 1012.9 |
| 20260506040044 | 18 | 196 | 4.8 | 11.3 | 0.00 | 0.00 | 0.00 | 26 | 1012.9 |
| 20260506035531 | 18 | 202 | 3.2 | 11.3 | 0.00 | 0.00 | 0.00 | 25 | 1012.8 |
| 20260506035030 | 18 | 204 | 6.4 | 12.9 | 0.00 | 0.00 | 0.00 | 25 | 1012.8 |
| 20260506034531 | 19 | 209 | 4.8 | 12.9 | 0.00 | 0.00 | 0.00 | 24 | 1012.7 |
| 20260506034029 | 19 | 215 | 4.8 | 12.9 | 0.00 | 0.00 | 0.00 | 24 | 1012.5 |
| 20260506033529 | 20 | 198 | 6.4 | 12.9 | 0.00 | 0.00 | 0.00 | 23 | 1012.5 |
| 20260506033030 | 20 | 232 | 6.4 | 12.9 | 0.00 | 0.00 | 0.00 | 23 | 1012.4 |
| 20260506032529 | 20 | 219 | 6.4 | 14.5 | 0.00 | 0.00 | 0.00 | 23 | 1012.3 |
| 20260506032029 | 20 | 263 | 6.4 | 14.5 | 0.00 | 0.00 | 0.00 | 24 | 1012.2 |
| 20260506031530 | 20 | 219 | 4.8 | 9.7 | 0.00 | 0.00 | 0.00 | 24 | 1012.2 |
| 20260506031029 | 20 | 211 | 3.2 | 9.7 | 0.00 | 0.00 | 0.00 | 24 | 1012.2 |
| 20260506030532 | 20 | 224 | 4.8 | 9.7 | 0.00 | 0.00 | 0.00 | 24 | 1012.1 |
| 20260506030030 | 20 | 213 | 4.8 | 8.0 | 0.00 | 0.00 | 0.00 | 24 | 1012.0 |
| 20260506025529 | 20 | 214 | 3.2 | 9.7 | 0.00 | 0.00 | 0.00 | 24 | 1012.0 |
| 20260506025028 | 20 | 229 | 3.2 | 11.3 | 0.00 | 0.00 | 0.00 | 24 | 1011.9 |
| 20260506024536 | 20 | 217 | 4.8 | 11.3 | 0.00 | 0.00 | 0.00 | 24 | 1011.8 |
| 20260506024028 | 20 | 202 | 6.4 | 11.3 | 0.00 | 0.00 | 0.00 | 24 | 1011.8 |
| 20260506023529 | 20 | 217 | 6.4 | 11.3 | 0.00 | 0.00 | 0.00 | 23 | 1011.7 |
| 20260506023028 | 21 | 242 | 4.8 | 11.3 | 0.00 | 0.00 | 0.00 | 23 | 1011.7 |
| 20260506022527 | 21 | 271 | 6.4 | 12.9 | 0.00 | 0.00 | 0.00 | 23 | 1011.7 |
| 20260506022027 | 21 | 240 | 8.0 | 14.5 | 0.00 | 0.00 | 0.00 | 23 | 1011.6 |
| 20260506021542 | 21 | 244 | 9.7 | 14.5 | 0.00 | 0.00 | 0.00 | 23 | 1011.5 |
| 20260506021028 | 21 | 242 | 8.0 | 14.5 | 0.00 | 0.00 | 0.00 | 23 | 1011.4 |
| 20260506020531 | 21 | 266 | 4.8 | 16.1 | 0.00 | 0.00 | 0.00 | 24 | 1011.4 |
| 20260506020026 | 21 | 268 | 8.0 | 16.1 | 0.00 | 0.00 | 0.00 | 24 | 1011.3 |
| 20260506015527 | 21 | 247 | 4.8 | 16.1 | 0.00 | 0.00 | 0.00 | 24 | 1011.4 |
| 20260506015026 | 21 | 264 | 8.0 | 16.1 | 0.00 | 0.00 | 0.00 | 24 | 1011.4 |
| 20260506014527 | 21 | 271 | 8.0 | 19.3 | 0.00 | 0.00 | 0.00 | 24 | 1011.3 |
| 20260506014025 | 21 | 302 | 9.7 | 19.3 | 0.00 | 0.00 | 0.00 | 25 | 1011.3 |
| 20260506013526 | 21 | 248 | 11.3 | 17.7 | 0.00 | 0.00 | 0.00 | 25 | 1011.3 |
| 20260506013025 | 21 | 230 | 9.7 | 17.7 | 0.00 | 0.00 | 0.00 | 26 | 1011.2 |
| 20260506012525 | 21 | 244 | 9.7 | 14.5 | 0.00 | 0.00 | 0.00 | 28 | 1011.2 |
| 20260506012025 | 21 | 281 | 8.0 | 14.5 | 0.00 | 0.00 | 0.00 | 29 | 1011.2 |
| 20260506011528 | 22 | 297 | 8.0 | 17.7 | 0.00 | 0.00 | 0.00 | 29 | 1011.2 |
| 20260506011028 | 22 | 261 | 9.7 | 17.7 | 0.00 | 0.00 | 0.00 | 29 | 1011.2 |
| 20260506010524 | 22 | 250 | 8.0 | 17.7 | 0.00 | 0.00 | 0.00 | 29 | 1011.3 |
| 20260506010027 | 22 | 248 | 4.8 | 16.1 | 0.00 | 0.00 | 0.00 | 30 | 1011.2 |
| 20260506005523 | 22 | 268 | 9.7 | 16.1 | 0.00 | 0.00 | 0.00 | 29 | 1011.2 |
| 20260506005026 | 22 | 271 | 6.4 | 19.3 | 0.00 | 0.00 | 0.00 | 29 | 1011.2 |
| 20260506004523 | 22 | 304 | 8.0 | 19.3 | 0.00 | 0.00 | 0.00 | 28 | 1011.2 |
| 20260506004023 | 22 | 256 | 6.4 | 19.3 | 0.00 | 0.00 | 0.00 | 27 | 1011.2 |
| 20260506003524 | 22 | 281 | 12.9 | 19.3 | 0.00 | 0.00 | 0.00 | 27 | 1011.1 |
| 20260506003024 | 22 | 269 | 8.0 | 16.1 | 0.00 | 0.00 | 0.00 | 25 | 1011.1 |
| 20260506002526 | 22 | 248 | 9.7 | 16.1 | 0.00 | 0.00 | 0.00 | 26 | 1011.2 |
| 20260506002023 | 22 | 223 | 6.4 | 14.5 | 0.00 | 0.00 | 0.00 | 29 | 1011.2 |
| 20260506001522 | 22 | 237 | 8.0 | 16.1 | 0.00 | 0.00 | 0.00 | 28 | 1011.2 |
| 20260506001023 | 22 | 271 | 9.7 | 16.1 | 0.00 | 0.00 | 0.00 | 27 | 1011.1 |
| 20260506000523 | 22 | 215 | 8.0 | 22.5 | 0.00 | 0.00 | 0.00 | 27 | 1011.2 |
| 20260506000022 | 22 | 302 | 8.0 | 22.5 | 0.00 | 0.00 | 0.00 | 28 | 1011.1 |
| 20260505235522 | 22 | 235 | 12.9 | 20.9 | 0.00 | 0.00 | 0.00 | 27 | 1011.2 |
| 20260505235021 | 23 | 286 | 9.7 | 17.7 | 0.00 | 0.00 | 0.00 | 28 | 1011.1 |
| 20260505234521 | 23 | 235 | 11.3 | 22.5 | 0.00 | 0.00 | 0.00 | 27 | 1011.2 |
| 20260505234020 | 23 | 240 | 9.7 | 30.6 | 0.00 | 0.00 | 0.00 | 28 | 1011.3 |
| 20260505233520 | 23 | 191 | 16.1 | 30.6 | 0.00 | 0.00 | 0.00 | 27 | 1011.2 |
| 20260505233020 | 23 | 244 | 9.7 | 20.9 | 0.00 | 0.00 | 0.00 | 28 | 1011.2 |
| 20260505232520 | 23 | 250 | 9.7 | 20.9 | 0.00 | 0.00 | 0.00 | 28 | 1011.2 |
| 20260505232019 | 23 | 262 | 9.7 | 24.1 | 0.00 | 0.00 | 0.00 | 28 | 1011.4 |
| 20260505231525 | 23 | 291 | 12.9 | 24.1 | 0.00 | 0.00 | 0.00 | 27 | 1011.3 |
| 20260505231018 | 23 | 271 | 12.9 | 22.5 | 0.00 | 0.00 | 0.00 | 27 | 1011.4 |
| 20260505230518 | 23 | 291 | 12.9 | 17.7 | 0.00 | 0.00 | 0.00 | 28 | 1011.4 |
| 20260505230018 | 23 | 281 | 11.3 | 22.5 | 0.00 | 0.00 | 0.00 | 28 | 1011.5 |
| 20260505225517 | 22 | 261 | 9.7 | 25.7 | 0.00 | 0.00 | 0.00 | 28 | 1011.5 |
| 20260505225017 | 23 | 240 | 16.1 | 25.7 | 0.00 | 0.00 | 0.00 | 28 | 1011.6 |
| 20260505224525 | 23 | 185 | 14.5 | 29.0 | 0.00 | 0.00 | 0.00 | 27 | 1011.7 |
| 20260505224016 | 23 | 276 | 12.9 | 30.6 | 0.00 | 0.00 | 0.00 | 27 | 1011.7 |
| 20260505223514 | 23 | 232 | 12.9 | 30.6 | 0.00 | 0.00 | 0.00 | 28 | 1011.7 |
| 20260505223017 | 23 | 236 | 14.5 | 25.7 | 0.00 | 0.00 | 0.00 | 28 | 1011.7 |
| 20260505222512 | 23 | 294 | 17.7 | 25.7 | 0.00 | 0.00 | 0.00 | 29 | 1011.8 |
| 20260505222012 | 23 | 232 | 11.3 | 20.9 | 0.00 | 0.00 | 0.00 | 30 | 1011.9 |
| 20260505221512 | 23 | 207 | 11.3 | 30.6 | 0.00 | 0.00 | 0.00 | 29 | 1012.0 |
| 20260505221011 | 23 | 202 | 14.5 | 30.6 | 0.00 | 0.00 | 0.00 | 29 | 1012.0 |
| 20260505220512 | 23 | 243 | 11.3 | 29.0 | 0.00 | 0.00 | 0.00 | 28 | 1012.1 |
| 20260505220010 | 23 | 281 | 17.7 | 29.0 | 0.00 | 0.00 | 0.00 | 29 | 1012.3 |
| 20260505215509 | 23 | 211 | 11.3 | 20.9 | 0.00 | 0.00 | 0.00 | 30 | 1012.2 |
| 20260505215009 | 23 | 240 | 8.0 | 32.2 | 0.00 | 0.00 | 0.00 | 30 | 1012.4 |
| 20260505214507 | 23 | 296 | 17.7 | 32.2 | 0.00 | 0.00 | 0.00 | 29 | 1012.4 |
| 20260505214005 | 23 | 241 | 11.3 | 22.5 | 0.00 | 0.00 | 0.00 | 32 | 1012.6 |
| 20260505213505 | 22 | 237 | 9.7 | 17.7 | 0.00 | 0.00 | 0.00 | 33 | 1012.6 |
| 20260505213006 | 22 | 253 | 8.0 | 17.7 | 0.00 | 0.00 | 0.00 | 34 | 1012.7 |
| 20260505212503 | 22 | 271 | 9.7 | 19.3 | 0.00 | 0.00 | 0.00 | 35 | 1012.9 |
| 20260505212002 | 22 | 239 | 11.3 | 20.9 | 0.00 | 0.00 | 0.00 | 35 | 1012.9 |
| 20260505211504 | 21 | 224 | 12.9 | 20.9 | 0.00 | 0.00 | 0.00 | 36 | 1013.0 |
| 20260505211100 | 22 | 217 | 11.3 | 20.9 | 0.00 | 0.00 | 0.00 | 36 | 1013.1 |
| 20260505210559 | 22 | 198 | 11.3 | 22.5 | 0.00 | 0.00 | 0.00 | 36 | 1013.1 |
| 20260505210058 | 21 | 269 | 11.3 | 22.5 | 0.00 | 0.00 | 0.00 | 36 | 1013.2 |
| 20260505205558 | 21 | 201 | 12.9 | 25.7 | 0.00 | 0.00 | 0.00 | 36 | 1013.4 |
| 20260505205057 | 21 | 202 | 16.1 | 25.7 | 0.00 | 0.00 | 0.00 | 37 | 1013.4 |
| 20260505204557 | 21 | 292 | 12.9 | 22.5 | 0.00 | 0.00 | 0.00 | 37 | 1013.5 |
| 20260505204057 | 21 | 181 | 12.9 | 22.5 | 0.00 | 0.00 | 0.00 | 37 | 1013.6 |
| 20260505203554 | 21 | 248 | 12.9 | 24.1 | 0.00 | 0.00 | 0.00 | 38 | 1013.8 |
| 20260505203119 | 21 | 255 | 14.5 | 24.1 | 0.00 | 0.00 | 0.00 | 38 | 1013.9 |
| 20260505202555 | 21 | 234 | 12.9 | 24.1 | 0.00 | 0.00 | 0.00 | 38 | 1013.9 |
| 20260505202055 | 21 | 234 | 12.9 | 22.5 | 0.00 | 0.00 | 0.00 | 37 | 1013.9 |
| 20260505201554 | 20 | 228 | 14.5 | 22.5 | 0.00 | 0.00 | 0.00 | 38 | 1014.0 |
| 20260505201054 | 20 | 318 | 12.9 | 22.5 | 0.00 | 0.00 | 0.00 | 38 | 1014.1 |
| 20260505200554 | 20 | 209 | 11.3 | 32.2 | 0.00 | 0.00 | 0.00 | 38 | 1014.0 |
| 20260505200053 | 20 | 202 | 14.5 | 32.2 | 0.00 | 0.00 | 0.00 | 38 | 1014.1 |
| 20260505195553 | 20 | 294 | 11.3 | 20.9 | 0.00 | 0.00 | 0.00 | 38 | 1014.2 |
| 20260505195053 | 20 | 199 | 11.3 | 20.9 | 0.00 | 0.00 | 0.00 | 38 | 1014.2 |
| 20260505194553 | 20 | 238 | 11.3 | 22.5 | 0.00 | 0.00 | 0.00 | 40 | 1014.3 |
| 20260505194053 | 20 | 231 | 12.9 | 22.5 | 0.00 | 0.00 | 0.00 | 40 | 1014.4 |
| 20260505193553 | 20 | 217 | 11.3 | 24.1 | 0.00 | 0.00 | 0.00 | 40 | 1014.4 |
| 20260505193053 | 19 | 251 | 12.9 | 29.0 | 0.00 | 0.00 | 0.00 | 40 | 1014.4 |
| 20260505192557 | 19 | 261 | 14.5 | 38.6 | 0.00 | 0.00 | 0.00 | 42 | 1014.6 |
| 20260505192054 | 19 | 250 | 20.9 | 41.8 | 0.00 | 0.00 | 0.00 | 42 | 1014.7 |
| 20260505191555 | 19 | 291 | 20.9 | 41.8 | 0.00 | 0.00 | 0.00 | 43 | 1014.6 |
| 20260505191053 | 18 | 263 | 19.3 | 40.2 | 0.00 | 0.00 | 0.00 | 42 | 1014.6 |
| 20260505190552 | 18 | 272 | 16.1 | 40.2 | 0.00 | 0.00 | 0.00 | 44 | 1014.6 |
| 20260505190052 | 18 | 254 | 12.9 | 37.0 | 0.00 | 0.00 | 0.00 | 46 | 1014.8 |
| 20260505185551 | 18 | 255 | 20.9 | 40.2 | 0.00 | 0.00 | 0.00 | 43 | 1015.0 |
| 20260505185051 | 18 | 232 | 24.1 | 43.5 | 0.00 | 0.00 | 0.00 | 41 | 1015.3 |
| 20260505184552 | 18 | 286 | 25.7 | 43.5 | 0.00 | 0.00 | 0.00 | 39 | 1015.4 |
| 20260505184051 | 18 | 227 | 17.7 | 35.4 | 0.00 | 0.00 | 0.00 | 39 | 1015.3 |
| 20260505183550 | 18 | 235 | 16.1 | 29.0 | 0.00 | 0.00 | 0.00 | 39 | 1015.2 |
| 20260505183049 | 18 | 327 | 16.1 | 25.7 | 0.00 | 0.00 | 0.00 | 40 | 1014.9 |
| 20260505182550 | 18 | 298 | 9.7 | 32.2 | 0.00 | 0.00 | 0.00 | 41 | 1014.8 |
| 20260505182048 | 18 | 234 | 14.5 | 35.4 | 0.00 | 0.00 | 0.00 | 40 | 1014.7 |
| 20260505181547 | 19 | 344 | 16.1 | 35.4 | 0.00 | 0.00 | 0.00 | 40 | 1014.8 |
| 20260505181047 | 19 | 252 | 16.1 | 35.4 | 0.00 | 0.00 | 0.00 | 38 | 1014.8 |
| 20260505180550 | 19 | 286 | 16.1 | 35.4 | 0.00 | 0.00 | 0.00 | 37 | 1014.6 |
| 20260505180048 | 20 | 300 | 12.9 | 25.7 | 0.00 | 0.00 | 0.00 | 36 | 1014.7 |
| 20260505175546 | 20 | 238 | 14.5 | 32.2 | 0.00 | 0.00 | 0.00 | 35 | 1014.5 |
| 20260505175045 | 20 | 238 | 16.1 | 30.6 | 0.00 | 0.00 | 0.00 | 35 | 1014.5 |
| 20260505174545 | 20 | 254 | 12.9 | 29.0 | 0.00 | 0.00 | 0.00 | 35 | 1014.5 |
| 20260505174046 | 20 | 276 | 14.5 | 29.0 | 0.00 | 0.00 | 0.00 | 34 | 1014.5 |
| 20260505173545 | 20 | 239 | 11.3 | 25.7 | 0.00 | 0.00 | 0.00 | 34 | 1014.4 |
| 20260505173045 | 20 | 260 | 17.7 | 24.1 | 0.00 | 0.00 | 0.00 | 34 | 1014.4 |
| 20260505172548 | 21 | 256 | 12.9 | 22.5 | 0.00 | 0.00 | 0.00 | 34 | 1014.3 |
| 20260505172045 | 20 | 181 | 9.7 | 19.3 | 0.00 | 0.00 | 0.00 | 34 | 1014.4 |
| 20260505171545 | 20 | 251 | 12.9 | 25.7 | 0.00 | 0.00 | 0.00 | 34 | 1014.4 |
| 20260505171044 | 20 | 237 | 12.9 | 29.0 | 0.00 | 0.00 | 0.00 | 34 | 1014.4 |
| 20260505170544 | 20 | 259 | 14.5 | 29.0 | 0.00 | 0.00 | 0.00 | 34 | 1014.5 |
| 20260505170044 | 21 | 225 | 12.9 | 22.5 | 0.00 | 0.00 | 0.00 | 35 | 1014.4 |
| 20260505165546 | 21 | 300 | 8.0 | 22.5 | 0.00 | 0.00 | 0.00 | 35 | 1014.2 |
| 20260505165043 | 21 | 245 | 6.4 | 17.7 | 0.00 | 0.00 | 0.00 | 36 | 1014.2 |
| 20260505164541 | 20 | 296 | 8.0 | 17.7 | 0.00 | 0.00 | 0.00 | 35 | 1014.2 |
| 20260505164043 | 20 | 244 | 8.0 | 17.7 | 0.00 | 0.00 | 0.00 | 38 | 1014.2 |
| 20260505163539 | 20 | 253 | 8.0 | 17.7 | 0.00 | 0.00 | 0.00 | 38 | 1014.3 |
| 20260505163037 | 19 | 263 | 6.4 | 14.5 | 0.00 | 0.00 | 0.00 | 39 | 1014.3 |
| 20260505162539 | 19 | 256 | 6.4 | 12.9 | 0.00 | 0.00 | 0.00 | 40 | 1014.4 |
| 20260505162035 | 18 | 313 | 4.8 | 11.3 | 0.00 | 0.00 | 0.00 | 40 | 1014.2 |
| 20260505161534 | 18 | 259 | 3.2 | 12.9 | 0.00 | 0.00 | 0.00 | 41 | 1014.2 |
| 20260505161036 | 18 | 257 | 6.4 | 14.5 | 0.00 | 0.00 | 0.00 | 40 | 1014.3 |
| 20260505160533 | 18 | 242 | 8.0 | 14.5 | 0.00 | 0.00 | 0.00 | 40 | 1014.2 |
| 20260505153026 | 17 | 311 | 4.8 | 12.9 | 0.00 | 0.00 | 0.00 | 44 | 1014.4 |
| 20260505152526 | 17 | 272 | 4.8 | 12.9 | 0.00 | 0.00 | 0.00 | 43 | 1014.4 |
| 20260505152025 | 17 | 276 | 4.8 | 11.3 | 0.00 | 0.00 | 0.00 | 44 | 1014.4 |
| 20260505151533 | 17 | 323 | 4.8 | 9.7 | 0.00 | 0.00 | 0.00 | 46 | 1014.4 |
| 20260505151026 | 17 | 307 | 3.2 | 8.0 | 0.00 | 0.00 | 0.00 | 47 | 1014.4 |
| 20260505150529 | 17 | 281 | 1.6 | 6.4 | 0.00 | 0.00 | 0.00 | 47 | 1014.4 |
| 20260505140518 | 15 | 239 | 0.0 | 1.6 | 0.00 | 0.00 | 0.00 | 55 | 1014.6 |
| 20260505125002 | 13 | 319 | 0.0 | 3.2 | 0.00 | 0.00 | 0.00 | 59 | 1014.2 |
| 20260505124501 | 13 | 319 | 0.0 | 3.2 | 0.00 | 0.00 | 0.00 | 58 | 1014.0 |
| 20260505124000 | 13 | 319 | 0.0 | 3.2 | 0.00 | 0.00 | 0.00 | 58 | 1014.1 |
| 20260505123559 | 13 | 319 | 0.0 | 6.4 | 0.00 | 0.00 | 0.00 | 58 | 1014.0 |
| 20260505123100 | 13 | 319 | 1.6 | 6.4 | 0.00 | 0.00 | 0.00 | 58 | 1014.0 |
| 20260505122558 | 13 | 319 | 0.0 | 6.4 | 0.00 | 0.00 | 0.00 | 57 | 1014.0 |
| 20260505122158 | 13 | 319 | 0.0 | 6.4 | 0.00 | 0.00 | 0.00 | 57 | 1014.0 |
| 20260505121600 | 13 | 303 | 0.0 | 3.2 | 0.00 | 0.00 | 0.00 | 57 | 1013.9 |
| 20260505121057 | 13 | 303 | 0.0 | 6.4 | 0.00 | 0.00 | 0.00 | 55 | 1013.8 |
| 20260505120555 | 14 | 303 | 0.0 | 6.4 | 0.00 | 0.00 | 0.00 | 55 | 1013.7 |
| 20260505120111 | 14 | 303 | 0.0 | 6.4 | 0.00 | 0.00 | 0.00 | 55 | 1013.8 |
| 20260505115555 | 15 | 303 | 0.0 | 6.4 | 0.00 | 0.00 | 0.00 | 53 | 1013.7 |